createdAt,value
2022-12-19T00:04:15.605Z,91.27
2022-12-19T00:09:18.015Z,89.26
2022-12-19T00:14:20.528Z,90.69
2022-12-19T00:19:23.194Z,87.27
2022-12-19T00:24:25.766Z,87.77
2022-12-19T00:29:28.180Z,87.79
2022-12-19T00:34:30.570Z,87.68
2022-12-19T00:39:32.927Z,87.36
2022-12-19T00:44:35.268Z,87.84
2022-12-19T00:49:37.620Z,88.01
2022-12-19T00:54:40.592Z,90.00
2022-12-19T00:59:43.236Z,90.33
2022-12-19T01:04:45.287Z,94.75
2022-12-19T01:09:47.810Z,94.74
2022-12-19T01:14:55.194Z,95.75
2022-12-19T01:20:07.210Z,94.82
2022-12-19T01:25:12.387Z,93.90
2022-12-19T01:30:14.568Z,96.51
2022-12-19T01:35:21.792Z,97.64
2022-12-19T01:40:25.276Z,99.02
2022-12-19T01:45:34.344Z,97.94
2022-12-19T01:50:39.599Z,98.62
2022-12-19T01:55:46.034Z,100.00
2022-12-19T02:00:48.737Z,100.00
2022-12-19T02:05:53.271Z,100.00
2022-12-19T02:10:55.941Z,100.00
2022-12-19T02:16:13.439Z,100.00
2022-12-19T02:21:41.820Z,100.00
2022-12-19T02:26:47.110Z,100.00
2022-12-19T02:31:55.551Z,100.00
2022-12-19T02:37:28.892Z,100.00
2022-12-19T02:42:37.815Z,100.00
2022-12-19T02:47:41.565Z,100.00
2022-12-19T02:52:47.466Z,100.00
2022-12-19T02:58:29.977Z,100.00
2022-12-19T03:04:05.393Z,100.00
2022-12-19T03:09:26.480Z,100.00
2022-12-19T03:14:31.212Z,100.00
2022-12-19T03:19:36.013Z,100.00
2022-12-19T03:24:38.501Z,100.00
2022-12-19T03:29:47.505Z,100.00
2022-12-19T03:35:22.179Z,100.00
2022-12-19T03:40:27.229Z,100.00
2022-12-19T03:45:54.678Z,100.00
2022-12-19T03:51:22.309Z,100.00
2022-12-19T03:56:50.497Z,100.00
2022-12-19T04:01:55.349Z,100.00
2022-12-19T04:06:58.854Z,100.00
2022-12-19T04:12:06.479Z,100.00
2022-12-19T04:17:40.011Z,100.00
2022-12-19T04:22:53.758Z,100.00
2022-12-19T04:28:04.359Z,100.00
2022-12-19T04:33:07.933Z,100.00
2022-12-19T04:38:10.577Z,100.00
2022-12-19T04:43:12.996Z,100.00
2022-12-19T04:48:15.407Z,100.00
2022-12-19T04:53:18.359Z,100.00
2022-12-19T04:58:22.155Z,100.00
2022-12-19T05:03:24.944Z,100.00
2022-12-19T05:08:27.506Z,100.00
2022-12-19T05:13:30.365Z,100.00
2022-12-19T05:18:33.085Z,100.00
2022-12-19T05:23:35.593Z,100.00
2022-12-19T05:28:38.001Z,100.00
2022-12-19T05:33:41.727Z,100.00
2022-12-19T05:38:44.545Z,100.00
2022-12-19T05:43:51.023Z,100.00
2022-12-19T05:48:54.308Z,100.00
2022-12-19T05:53:57.068Z,100.00
2022-12-19T05:58:59.463Z,100.00
2022-12-19T06:04:01.866Z,100.00
2022-12-19T06:09:04.418Z,100.00
2022-12-19T06:14:06.858Z,100.00
2022-12-19T06:19:09.248Z,100.00
2022-12-19T06:24:11.621Z,100.00
2022-12-19T06:29:14.033Z,100.00
2022-12-19T06:34:33.258Z,100.00
2022-12-19T06:39:38.907Z,100.00
2022-12-19T06:44:41.496Z,100.00
2022-12-19T06:49:43.867Z,100.00
2022-12-19T06:54:46.605Z,100.00
2022-12-19T06:59:48.992Z,100.00
2022-12-19T07:05:04.178Z,100.00
2022-12-19T07:10:07.476Z,100.00
2022-12-19T07:15:12.258Z,100.00
2022-12-19T07:20:16.011Z,100.00
2022-12-19T07:25:18.674Z,100.00
2022-12-19T07:30:21.216Z,100.00
2022-12-19T07:35:24.417Z,100.00
2022-12-19T07:40:27.172Z,100.00
2022-12-19T07:45:30.669Z,100.00
2022-12-19T07:50:34.014Z,100.00
2022-12-19T07:55:36.416Z,100.00
2022-12-19T08:00:38.969Z,100.00
2022-12-19T08:05:41.980Z,100.00
2022-12-19T08:10:44.550Z,100.00
2022-12-19T08:15:47.132Z,100.00
2022-12-19T08:20:49.620Z,100.00
2022-12-19T08:26:04.014Z,100.00
2022-12-19T08:31:12.830Z,100.00
2022-12-19T08:36:19.055Z,100.00
2022-12-19T08:41:21.555Z,100.00
2022-12-19T08:46:24.339Z,100.00
2022-12-19T08:51:27.308Z,100.00
2022-12-19T08:56:29.736Z,100.00
2022-12-19T09:01:32.235Z,100.00
2022-12-19T09:06:35.021Z,100.00
2022-12-19T09:11:45.919Z,100.00
2022-12-19T09:16:50.668Z,100.00
2022-12-19T09:21:53.130Z,100.00
2022-12-19T09:26:56.105Z,100.00
2022-12-19T09:31:58.918Z,100.00
2022-12-19T09:37:01.326Z,100.00
2022-12-19T09:42:27.399Z,100.00
2022-12-19T09:47:32.701Z,100.00
2022-12-19T09:52:46.091Z,100.00
2022-12-19T09:57:57.734Z,100.00
2022-12-19T10:03:24.434Z,100.00
2022-12-19T10:08:45.369Z,100.00
2022-12-19T10:14:09.101Z,100.00
2022-12-19T10:19:27.361Z,100.00
2022-12-19T10:25:07.652Z,98.82
2022-12-19T10:30:17.335Z,100.00
2022-12-19T10:35:22.237Z,100.00
2022-12-19T10:40:38.952Z,100.00
2022-12-19T10:45:50.385Z,97.58
2022-12-19T10:50:52.933Z,100.00
2022-12-19T10:56:00.956Z,98.00
2022-12-19T11:01:15.708Z,94.49
2022-12-19T11:06:43.902Z,94.82
2022-12-19T11:13:19.470Z,97.04
2022-12-19T11:26:56.056Z,96.33
2022-12-19T11:29:40.718Z,94.82
2022-12-19T11:30:35.303Z,94.81
2022-12-19T11:34:13.459Z,97.12
2022-12-19T11:39:25.709Z,95.28
2022-12-19T11:44:36.266Z,94.14
2022-12-19T11:49:46.006Z,94.50
2022-12-19T11:54:48.420Z,92.64
2022-12-19T11:59:55.616Z,89.59
2022-12-19T12:05:16.326Z,83.10
2022-12-19T12:16:19.724Z,86.14
2022-12-19T12:29:43.017Z,87.55
2022-12-19T12:31:38.459Z,89.31
2022-12-19T12:31:48.512Z,91.94
2022-12-19T12:35:57.124Z,92.67
2022-12-19T12:39:09.527Z,93.05
2022-12-19T12:44:14.075Z,93.26
2022-12-19T12:49:43.464Z,92.12
2022-12-19T12:54:50.528Z,86.93
2022-12-19T13:00:31.855Z,85.70
2022-12-19T13:05:46.050Z,84.33
2022-12-19T13:10:58.244Z,84.23
2022-12-19T13:16:00.624Z,83.92
2022-12-19T13:21:07.117Z,83.58
2022-12-19T13:26:49.556Z,84.98
2022-12-19T13:32:15.200Z,86.38
2022-12-19T13:39:49.531Z,88.91
2022-12-19T13:43:18.122Z,91.35
2022-12-19T13:48:42.477Z,91.53
2022-12-19T13:53:44.899Z,91.76
2022-12-19T13:59:02.471Z,93.08
2022-12-19T14:04:26.337Z,95.59
2022-12-19T14:11:27.322Z,94.46
2022-12-19T14:15:31.527Z,91.78
2022-12-19T14:22:02.299Z,93.44
2022-12-19T14:28:15.124Z,94.43
2022-12-19T14:31:21.063Z,94.89
2022-12-19T14:36:31.385Z,95.00
2022-12-19T14:42:02.908Z,95.88
2022-12-19T14:51:51.833Z,95.65
2022-12-19T14:54:28.914Z,95.53
2022-12-19T14:58:56.143Z,96.67
2022-12-19T15:03:52.494Z,97.69
2022-12-19T15:10:58.912Z,99.44
2022-12-19T15:14:59.253Z,99.53
2022-12-19T15:20:01.789Z,99.97
2022-12-19T15:25:04.119Z,100.00
2022-12-19T15:30:19.326Z,100.00
2022-12-19T15:35:21.651Z,100.00
2022-12-19T15:40:24.228Z,100.00
2022-12-19T15:45:26.745Z,100.00
2022-12-19T15:50:32.319Z,100.00
2022-12-19T15:55:36.001Z,100.00
2022-12-19T16:00:39.431Z,100.00
2022-12-19T16:05:41.639Z,100.00
2022-12-19T16:10:47.424Z,100.00
2022-12-19T16:15:51.007Z,100.00
2022-12-19T16:20:54.098Z,100.00
2022-12-19T16:25:56.929Z,100.00
2022-12-19T16:31:15.578Z,100.00
2022-12-19T16:36:18.399Z,100.00
2022-12-19T16:41:24.482Z,100.00
2022-12-19T16:46:34.109Z,100.00
2022-12-19T16:51:36.726Z,100.00
2022-12-19T16:56:48.049Z,100.00
2022-12-19T17:01:51.287Z,100.00
2022-12-19T17:06:55.018Z,100.00
2022-12-19T17:12:00.972Z,100.00
2022-12-19T17:17:03.677Z,100.00
2022-12-19T17:22:13.093Z,100.00
2022-12-19T17:27:17.533Z,100.00
2022-12-19T17:32:24.363Z,100.00
2022-12-19T17:37:27.315Z,100.00
2022-12-19T17:42:35.301Z,100.00
2022-12-19T17:47:39.886Z,100.00
2022-12-19T17:52:42.334Z,100.00
2022-12-19T17:57:44.779Z,100.00
2022-12-19T18:02:50.261Z,100.00
2022-12-19T18:07:54.024Z,100.00
2022-12-19T18:12:58.106Z,100.00
2022-12-19T18:18:00.516Z,100.00
2022-12-19T18:23:03.735Z,100.00
2022-12-19T18:28:06.200Z,100.00
2022-12-19T18:33:18.295Z,100.00
2022-12-19T18:38:23.306Z,100.00
2022-12-19T18:43:26.147Z,100.00
2022-12-19T18:48:36.451Z,100.00
2022-12-19T18:53:39.170Z,100.00
2022-12-19T18:58:41.903Z,100.00
2022-12-19T19:03:56.885Z,100.00
2022-12-19T19:09:00.331Z,100.00
2022-12-19T19:14:17.947Z,100.00
2022-12-19T19:19:20.450Z,100.00
2022-12-19T19:24:23.609Z,100.00
2022-12-19T19:29:26.621Z,100.00
2022-12-19T19:34:35.271Z,99.33
2022-12-19T19:39:37.403Z,98.61
2022-12-19T19:44:39.725Z,99.95
2022-12-19T19:49:41.803Z,100.00
2022-12-19T19:54:43.801Z,100.00
2022-12-19T19:59:45.845Z,100.00
2022-12-19T20:04:47.910Z,100.00
2022-12-19T20:09:49.911Z,100.00
2022-12-19T20:14:52.226Z,99.79
2022-12-19T20:19:54.407Z,99.79
2022-12-19T20:24:57.512Z,100.00
2022-12-19T20:29:59.661Z,99.94
2022-12-19T20:35:01.817Z,99.53
2022-12-19T20:40:06.082Z,99.69
2022-12-19T20:45:08.647Z,99.53
2022-12-19T20:50:12.891Z,98.36
2022-12-19T20:55:15.190Z,96.99
2022-12-19T21:00:18.106Z,96.70
2022-12-19T21:05:20.830Z,97.66
2022-12-19T21:10:23.041Z,99.49
2022-12-19T21:15:25.588Z,96.70
2022-12-19T21:20:34.050Z,98.77
2022-12-19T21:25:36.554Z,98.72
2022-12-19T21:30:38.648Z,98.96
2022-12-19T21:35:40.733Z,99.07
2022-12-19T21:40:42.890Z,99.73
2022-12-19T21:45:44.947Z,96.54
2022-12-19T21:50:56.345Z,94.96
2022-12-19T21:56:16.334Z,95.05
2022-12-19T22:01:18.646Z,94.40
2022-12-19T22:06:28.145Z,97.51
2022-12-19T22:11:31.285Z,94.75
2022-12-19T22:16:34.649Z,95.51
2022-12-19T22:21:37.177Z,96.21
2022-12-19T22:26:39.976Z,94.80
2022-12-19T22:31:42.434Z,95.14
2022-12-19T22:36:46.094Z,95.17
2022-12-19T22:41:48.492Z,94.35
2022-12-19T22:46:51.806Z,94.10
2022-12-19T22:51:54.005Z,94.19
2022-12-19T22:56:56.361Z,96.73
2022-12-19T23:01:58.623Z,99.74
2022-12-19T23:07:00.819Z,96.84
2022-12-19T23:12:02.871Z,93.58
2022-12-19T23:17:04.895Z,96.02
2022-12-19T23:22:07.233Z,100.00
2022-12-19T23:27:09.418Z,100.00
2022-12-19T23:32:11.604Z,100.00
2022-12-19T23:37:14.046Z,100.00
2022-12-19T23:42:16.099Z,100.00
2022-12-19T23:47:18.581Z,100.00
2022-12-19T23:52:20.962Z,100.00
2022-12-19T23:57:23.330Z,100.00
